Time;durP1;ratioP1;P1;durP2;ratioP2;P2;SDS_P1;SDS_P2;PMS_P1;PMS_P2;Temp;Humidity;BMP_temperature;BMP_pressure;BME280_temperature;BME280_humidity;BME280_pressure;Samples;Min_cycle;Max_cycle;Signal;HPM_P1;HPM_P2
2023/04/12 00:01:27;;;;;;;8.40;7.60;;;5.40;99.90;;;;;;5038549;28;20497;-63
2023/04/12 00:03:55;;;;;;;7.33;6.67;;;5.40;99.90;;;;;;5036290;28;20477;-62
2023/04/12 00:06:31;;;;;;;7.70;7.00;;;5.40;99.90;;;;;;5026641;28;20459;-66
2023/04/12 00:08:59;;;;;;;6.93;6.17;;;5.40;99.90;;;;;;5023510;28;20483;-63
2023/04/12 00:11:28;;;;;;;8.57;7.00;;;5.40;99.90;;;;;;5003898;28;20855;-62
2023/04/12 00:13:57;;;;;;;10.03;6.87;;;5.40;99.90;;;;;;5020484;28;20483;-62
2023/04/12 00:16:25;;;;;;;8.03;6.87;;;5.30;99.90;;;;;;5023866;28;20875;-63
2023/04/12 00:18:54;;;;;;;9.57;6.30;;;5.30;99.90;;;;;;5019756;28;20487;-62
2023/04/12 00:21:22;;;;;;;8.00;6.27;;;5.30;99.90;;;;;;5020420;28;21376;-63
2023/04/12 00:23:50;;;;;;;6.80;6.10;;;5.30;99.90;;;;;;5022447;28;20957;-63
2023/04/12 00:26:20;;;;;;;6.40;5.70;;;5.20;99.90;;;;;;5022984;28;20491;-62
2023/04/12 00:28:48;;;;;;;9.83;6.10;;;5.20;99.90;;;;;;5025219;28;20495;-62
2023/04/12 00:31:18;;;;;;;9.73;6.23;;;5.20;99.90;;;;;;5022816;28;20490;-62
2023/04/12 00:33:46;;;;;;;6.23;5.73;;;5.20;99.90;;;;;;5025790;28;20894;-62
2023/04/12 00:36:14;;;;;;;6.47;5.87;;;5.20;99.90;;;;;;5018678;28;20498;-62
2023/04/12 00:38:42;;;;;;;7.60;6.73;;;5.20;99.90;;;;;;5025825;28;20551;-62
2023/04/12 00:41:10;;;;;;;6.93;5.50;;;5.10;99.90;;;;;;5024348;28;20482;-62
2023/04/12 00:43:39;;;;;;;6.77;5.50;;;5.10;99.90;;;;;;5025285;28;20475;-62
2023/04/12 00:46:08;;;;;;;5.67;5.13;;;5.10;99.90;;;;;;5027072;28;20467;-62
2023/04/12 00:48:38;;;;;;;6.63;5.83;;;5.10;99.90;;;;;;5026651;28;20487;-62
2023/04/12 00:51:08;;;;;;;6.13;5.53;;;5.00;99.90;;;;;;5023270;28;20500;-62
2023/04/12 00:53:37;;;;;;;6.33;5.73;;;5.00;99.90;;;;;;5021854;28;20486;-62
2023/04/12 00:56:06;;;;;;;8.27;6.17;;;5.00;99.90;;;;;;5024940;28;20498;-62
2023/04/12 00:58:34;;;;;;;9.10;5.87;;;5.00;99.90;;;;;;5025298;28;20964;-62
2023/04/12 01:01:02;;;;;;;5.73;5.20;;;5.00;99.90;;;;;;5017297;28;20506;-62
2023/04/12 01:03:30;;;;;;;8.00;5.87;;;5.00;99.90;;;;;;5028115;28;21022;-62
2023/04/12 01:06:12;;;;;;;5.73;5.13;;;5.00;99.90;;;;;;5034827;28;20483;-63
2023/04/12 01:08:54;;;;;;;7.07;5.80;;;5.00;99.90;;;;;;5020424;28;20514;-63
2023/04/12 01:11:30;;;;;;;6.37;5.60;;;5.00;99.90;;;;;;5025781;28;20913;-62
2023/04/12 01:14:06;;;;;;;6.50;5.40;;;5.00;99.90;;;;;;5018465;28;20482;-62
2023/04/12 01:16:40;;;;;;;5.53;5.03;;;4.90;99.90;;;;;;4996661;28;21644;-62
2023/04/12 01:19:29;;;;;;;10.83;6.73;;;4.90;99.90;;;;;;4995534;28;20764;-62
2023/04/12 01:22:13;;;;;;;5.57;5.07;;;4.80;99.90;;;;;;5006200;28;20474;-62
2023/04/12 01:24:51;;;;;;;5.37;4.70;;;4.80;99.90;;;;;;5008741;28;20478;-61
2023/04/12 01:27:34;;;;;;;6.20;5.17;;;4.80;99.90;;;;;;5003340;28;20475;-61
2023/04/12 01:30:06;;;;;;;5.80;5.20;;;4.80;99.90;;;;;;5006708;28;20606;-61
2023/04/12 01:32:36;;;;;;;5.67;5.00;;;4.80;99.90;;;;;;5007260;28;21146;-62
2023/04/12 01:35:07;;;;;;;5.83;5.20;;;4.70;99.90;;;;;;5002720;28;20475;-62
2023/04/12 01:37:36;;;;;;;7.40;5.03;;;4.70;99.90;;;;;;5010705;28;21112;-63
2023/04/12 01:40:06;;;;;;;5.40;4.83;;;4.70;99.90;;;;;;5018184;28;20506;-63
2023/04/12 01:42:35;;;;;;;11.20;5.63;;;4.70;99.90;;;;;;5025784;28;20999;-62
2023/04/12 01:45:04;;;;;;;6.20;5.60;;;4.70;99.90;;;;;;5016671;28;20478;-62
2023/04/12 01:47:33;;;;;;;5.03;4.50;;;4.70;99.90;;;;;;5010396;28;20877;-62
2023/04/12 01:50:13;;;;;;;6.90;5.00;;;4.70;99.90;;;;;;4998278;28;20497;-63
2023/04/12 01:52:46;;;;;;;6.13;4.83;;;4.70;99.90;;;;;;5012794;28;20467;-62
2023/04/12 01:55:16;;;;;;;6.10;4.50;;;4.70;99.90;;;;;;5018934;28;20475;-62
2023/04/12 01:57:47;;;;;;;6.10;4.97;;;4.70;99.90;;;;;;5018045;28;20491;-63
2023/04/12 02:00:17;;;;;;;6.20;4.83;;;4.70;99.90;;;;;;5011932;28;20532;-62
2023/04/12 02:02:47;;;;;;;5.23;4.73;;;4.70;99.90;;;;;;5024748;28;20695;-62
2023/04/12 02:05:15;;;;;;;5.77;4.77;;;4.70;99.90;;;;;;5023026;28;20562;-62
2023/04/12 02:07:45;;;;;;;6.10;4.23;;;4.70;99.90;;;;;;5013922;28;21599;-62
2023/04/12 02:10:14;;;;;;;5.07;4.67;;;4.60;99.90;;;;;;5000570;28;20502;-62
2023/04/12 02:12:42;;;;;;;4.50;4.10;;;4.60;99.90;;;;;;5013898;28;20475;-62
2023/04/12 02:15:12;;;;;;;6.60;4.13;;;4.60;99.90;;;;;;5011774;28;20467;-62
2023/04/12 02:17:40;;;;;;;6.07;4.70;;;4.60;99.90;;;;;;5008094;28;20502;-62
2023/04/12 02:20:10;;;;;;;5.00;4.20;;;4.60;99.90;;;;;;5007269;28;20566;-62
2023/04/12 02:22:38;;;;;;;4.40;4.00;;;4.60;99.90;;;;;;5017955;28;20486;-62
2023/04/12 02:25:07;;;;;;;4.73;4.00;;;4.60;99.90;;;;;;5016115;28;20475;-62
2023/04/12 02:27:35;;;;;;;6.27;4.10;;;4.60;99.90;;;;;;5009856;28;20471;-62
2023/04/12 02:30:03;;;;;;;5.33;3.70;;;4.60;99.90;;;;;;5007294;28;20495;-62
2023/04/12 02:32:43;;;;;;;4.43;3.40;;;4.60;99.90;;;;;;5018231;28;20471;-62
2023/04/12 02:35:12;;;;;;;5.87;3.70;;;4.70;99.90;;;;;;5017272;28;20494;-62
2023/04/12 02:37:42;;;;;;;3.57;3.27;;;4.70;99.90;;;;;;5021349;28;20487;-62
2023/04/12 02:40:12;;;;;;;5.40;3.57;;;4.60;99.90;;;;;;5028974;28;20495;-62
2023/04/12 02:42:40;;;;;;;5.77;4.13;;;4.70;99.90;;;;;;5028110;28;20475;-63
2023/04/12 02:45:08;;;;;;;6.27;4.03;;;4.70;99.90;;;;;;5045601;28;20458;-62
2023/04/12 02:47:39;;;;;;;4.30;3.90;;;4.70;99.90;;;;;;5029892;28;20476;-62
2023/04/12 02:50:08;;;;;;;7.50;4.20;;;4.70;99.90;;;;;;5018143;28;20494;-63
2023/04/12 02:52:36;;;;;;;7.87;4.30;;;4.70;99.90;;;;;;5019337;28;20476;-62
2023/04/12 02:55:04;;;;;;;5.83;3.90;;;4.70;99.90;;;;;;5020546;28;20463;-62
2023/04/12 02:57:32;;;;;;;8.57;4.30;;;4.70;99.90;;;;;;5022245;28;20502;-62
2023/04/12 03:00:00;;;;;;;5.90;4.03;;;4.70;99.90;;;;;;5018871;28;20506;-62
2023/04/12 03:02:28;;;;;;;5.83;3.70;;;4.70;99.90;;;;;;5011689;28;21166;-63
2023/04/12 03:04:58;;;;;;;5.30;4.70;;;4.70;99.90;;;;;;5022474;28;20467;-62
2023/04/12 03:07:26;;;;;;;5.23;3.60;;;4.70;99.90;;;;;;5018170;28;20470;-62
2023/04/12 03:09:54;;;;;;;4.03;3.63;;;4.70;99.90;;;;;;5016479;28;20507;-62
2023/04/12 03:12:22;;;;;;;5.33;3.37;;;4.70;99.90;;;;;;5007043;28;20472;-62
2023/04/12 03:14:50;;;;;;;3.43;3.00;;;4.70;99.90;;;;;;5015093;28;20537;-62
2023/04/12 03:17:18;;;;;;;3.73;3.43;;;4.70;99.90;;;;;;5007762;28;20499;-62
2023/04/12 03:19:46;;;;;;;3.77;3.03;;;4.70;99.90;;;;;;5012411;28;21149;-62
2023/04/12 03:22:15;;;;;;;5.00;3.30;;;4.80;99.90;;;;;;5022475;28;20472;-62
2023/04/12 03:24:45;;;;;;;3.77;3.43;;;4.80;99.90;;;;;;5022744;28;20936;-62
2023/04/12 03:27:13;;;;;;;3.97;3.43;;;4.80;99.90;;;;;;5023370;28;20837;-62
2023/04/12 03:29:41;;;;;;;6.33;3.50;;;4.80;99.90;;;;;;5011054;28;20493;-62
2023/04/12 03:32:09;;;;;;;4.60;3.77;;;4.90;99.90;;;;;;5020859;28;20475;-62
2023/04/12 03:34:37;;;;;;;5.83;3.83;;;4.90;99.90;;;;;;5011848;28;20467;-62
2023/04/12 03:37:05;;;;;;;5.07;3.90;;;4.90;99.90;;;;;;5026819;28;20471;-62
2023/04/12 03:39:35;;;;;;;4.13;3.73;;;4.90;99.90;;;;;;5020393;28;20578;-62
2023/04/12 03:42:03;;;;;;;4.73;3.43;;;4.90;99.90;;;;;;5010343;28;20487;-62
2023/04/12 03:44:31;;;;;;;6.60;4.03;;;5.00;99.90;;;;;;5015499;28;20480;-62
2023/04/12 03:46:59;;;;;;;5.23;3.67;;;5.00;99.90;;;;;;5010235;28;20467;-63
2023/04/12 03:49:27;;;;;;;3.87;3.40;;;5.00;99.90;;;;;;5023564;28;20498;-62
2023/04/12 03:51:56;;;;;;;5.53;3.53;;;5.00;99.90;;;;;;5006735;28;20471;-61
2023/04/12 03:54:24;;;;;;;5.23;3.20;;;5.10;99.90;;;;;;5010209;28;20467;-62
2023/04/12 03:56:53;;;;;;;3.60;3.10;;;5.10;99.90;;;;;;5025182;28;20483;-61
2023/04/12 03:59:21;;;;;;;4.53;3.00;;;5.10;99.90;;;;;;5005735;28;21016;-63
2023/04/12 04:01:49;;;;;;;3.80;2.50;;;5.20;99.90;;;;;;5012121;28;20515;-65
2023/04/12 04:04:17;;;;;;;3.37;2.70;;;5.20;99.90;;;;;;5041079;28;20460;-64
2023/04/12 04:06:46;;;;;;;3.17;2.80;;;5.20;99.90;;;;;;5035652;28;20501;-63
2023/04/12 04:09:14;;;;;;;4.13;3.40;;;5.20;99.90;;;;;;5018390;28;20840;-63
2023/04/12 04:11:42;;;;;;;4.70;3.03;;;5.20;99.90;;;;;;5015519;28;20481;-63
2023/04/12 04:14:11;;;;;;;4.80;2.70;;;5.20;99.90;;;;;;5019406;28;20494;-68
2023/04/12 04:16:39;;;;;;;6.53;2.80;;;5.20;99.90;;;;;;5018781;28;20475;-63
2023/04/12 04:19:07;;;;;;;7.40;2.70;;;5.30;99.90;;;;;;5019673;28;20499;-63
2023/04/12 04:21:35;;;;;;;6.13;2.70;;;5.30;99.90;;;;;;5019710;28;20475;-63
2023/04/12 04:24:03;;;;;;;6.27;3.40;;;5.30;99.90;;;;;;5013139;28;20481;-63
2023/04/12 04:26:32;;;;;;;4.80;2.50;;;5.30;99.90;;;;;;5019620;28;20480;-63
2023/04/12 04:29:03;;;;;;;2.87;2.50;;;5.30;99.90;;;;;;5014431;28;20495;-63
2023/04/12 04:31:35;;;;;;;3.87;2.33;;;5.30;99.90;;;;;;5012045;28;20487;-63
2023/04/12 04:34:04;;;;;;;2.80;2.40;;;5.40;99.90;;;;;;5028417;28;20586;-63
2023/04/12 04:36:33;;;;;;;2.90;2.60;;;5.40;99.90;;;;;;5012086;28;20471;-63
2023/04/12 04:39:02;;;;;;;2.73;2.00;;;5.40;99.90;;;;;;5022282;28;20491;-63
2023/04/12 04:41:33;;;;;;;4.73;2.47;;;5.40;99.90;;;;;;5025772;28;20603;-62
2023/04/12 04:44:03;;;;;;;3.73;3.00;;;5.40;99.90;;;;;;5018369;28;20478;-63
2023/04/12 04:46:33;;;;;;;3.07;2.17;;;5.40;99.90;;;;;;5007433;28;20972;-63
2023/04/12 04:49:01;;;;;;;3.10;2.57;;;5.40;99.90;;;;;;5006435;28;20572;-63
2023/04/12 04:51:29;;;;;;;3.67;2.10;;;5.50;99.90;;;;;;5015383;28;21300;-63
2023/04/12 04:53:57;;;;;;;3.70;2.70;;;5.50;99.90;;;;;;4999027;28;20474;-63
2023/04/12 04:56:25;;;;;;;2.50;2.30;;;5.50;99.90;;;;;;5011888;28;20889;-63
2023/04/12 04:58:53;;;;;;;6.00;2.67;;;5.60;99.90;;;;;;5005779;28;21141;-63
2023/04/12 05:01:27;;;;;;;3.17;2.53;;;5.60;99.90;;;;;;5005518;28;20496;-62
2023/04/12 05:03:57;;;;;;;5.23;2.60;;;5.60;99.90;;;;;;5003627;28;20738;-63
2023/04/12 05:06:26;;;;;;;4.10;2.70;;;5.60;99.90;;;;;;5006522;28;20475;-63
2023/04/12 05:08:54;;;;;;;5.33;2.70;;;5.60;99.90;;;;;;5008262;28;20929;-62
2023/04/12 05:11:22;;;;;;;2.60;2.40;;;5.60;99.90;;;;;;5002338;28;20486;-62
2023/04/12 05:13:50;;;;;;;2.80;2.60;;;5.60;99.90;;;;;;5006591;28;20501;-62
2023/04/12 05:16:18;;;;;;;3.70;2.77;;;5.60;99.90;;;;;;4994666;28;20471;-62
2023/04/12 05:18:46;;;;;;;5.50;2.30;;;5.60;99.90;;;;;;5025204;28;20489;-62
2023/04/12 05:21:15;;;;;;;2.67;2.43;;;5.60;99.90;;;;;;5021742;28;20487;-62
2023/04/12 05:23:46;;;;;;;3.70;2.37;;;5.60;99.90;;;;;;5016562;28;20845;-62
2023/04/12 05:26:14;;;;;;;4.77;2.57;;;5.60;99.90;;;;;;5022093;28;20487;-62
2023/04/12 05:28:42;;;;;;;5.27;2.50;;;5.70;99.90;;;;;;5017821;28;20533;-63
2023/04/12 05:31:10;;;;;;;7.83;2.67;;;5.70;99.90;;;;;;5006030;28;20506;-62
2023/04/12 05:33:38;;;;;;;3.77;2.67;;;5.70;99.90;;;;;;5013142;28;20475;-62
2023/04/12 05:36:07;;;;;;;2.70;2.50;;;5.70;99.90;;;;;;5018140;28;20472;-62
2023/04/12 05:38:36;;;;;;;5.90;2.90;;;5.70;99.90;;;;;;5025402;28;20491;-61
2023/04/12 05:41:04;;;;;;;2.87;2.50;;;5.80;99.90;;;;;;5014545;28;20495;-61
2023/04/12 05:43:32;;;;;;;3.70;2.53;;;5.90;99.90;;;;;;5023708;28;20467;-61
2023/04/12 05:46:00;;;;;;;2.77;2.57;;;5.90;99.90;;;;;;5019162;28;20980;-61
2023/04/12 05:48:28;;;;;;;2.87;2.60;;;5.90;99.90;;;;;;5022596;28;20581;-62
2023/04/12 05:50:56;;;;;;;3.87;2.63;;;5.90;99.90;;;;;;5027588;28;20502;-61
2023/04/12 05:53:28;;;;;;;4.03;2.43;;;6.00;99.90;;;;;;5025693;28;20509;-62
2023/04/12 05:55:57;;;;;;;3.77;2.50;;;6.00;99.90;;;;;;5018684;28;20472;-61
2023/04/12 05:58:25;;;;;;;3.03;2.57;;;6.00;99.90;;;;;;5025960;28;20498;-60
2023/04/12 06:00:54;;;;;;;3.30;2.70;;;6.00;99.90;;;;;;5021891;28;20988;-61
2023/04/12 06:03:23;;;;;;;3.93;2.53;;;6.10;99.90;;;;;;5027985;28;20542;-61
2023/04/12 06:05:53;;;;;;;2.30;2.10;;;6.10;99.90;;;;;;5049105;28;20475;-61
2023/04/12 06:08:21;;;;;;;3.80;2.77;;;6.20;99.90;;;;;;5043783;28;20491;-61
2023/04/12 06:10:49;;;;;;;2.33;2.13;;;6.20;99.90;;;;;;5023313;28;20534;-61
2023/04/12 06:13:18;;;;;;;3.70;2.43;;;6.30;99.90;;;;;;5029095;28;20476;-61
2023/04/12 06:15:46;;;;;;;3.87;2.90;;;6.30;99.90;;;;;;5023839;28;20471;-60
2023/04/12 06:18:14;;;;;;;5.37;2.70;;;6.40;99.90;;;;;;5024199;28;20482;-61
2023/04/12 06:20:42;;;;;;;3.17;2.17;;;6.40;99.90;;;;;;5029940;28;20937;-61
2023/04/12 06:23:10;;;;;;;3.93;2.50;;;6.50;99.90;;;;;;5027314;28;20466;-62
2023/04/12 06:25:38;;;;;;;2.97;2.40;;;6.50;99.90;;;;;;5029358;28;20846;-61
2023/04/12 06:28:06;;;;;;;4.30;2.80;;;6.60;99.90;;;;;;5023544;28;20501;-61
2023/04/12 06:30:36;;;;;;;3.27;2.53;;;6.60;99.90;;;;;;5022223;28;20495;-61
2023/04/12 06:33:04;;;;;;;2.60;2.40;;;6.70;99.90;;;;;;5027612;28;20479;-61
2023/04/12 06:35:32;;;;;;;3.10;2.40;;;6.80;99.90;;;;;;5027504;28;20567;-61
2023/04/12 06:38:00;;;;;;;3.17;2.80;;;6.90;99.90;;;;;;5027124;28;20518;-61
2023/04/12 06:40:29;;;;;;;4.07;2.70;;;6.90;99.90;;;;;;5019901;28;21117;-61
2023/04/12 06:42:57;;;;;;;4.20;2.70;;;7.00;99.90;;;;;;5024093;28;20475;-62
2023/04/12 06:45:25;;;;;;;5.40;2.70;;;7.10;99.90;;;;;;5023915;28;20832;-62
2023/04/12 06:47:55;;;;;;;5.20;3.00;;;7.10;99.90;;;;;;5022750;28;20470;-62
2023/04/12 06:50:24;;;;;;;4.70;3.10;;;7.20;99.90;;;;;;5028262;28;20484;-62
2023/04/12 06:52:52;;;;;;;4.27;2.80;;;7.30;99.90;;;;;;5023920;28;20459;-61
2023/04/12 06:55:21;;;;;;;2.60;2.40;;;7.30;99.90;;;;;;5029139;28;20468;-62
2023/04/12 06:57:50;;;;;;;4.27;2.60;;;7.40;99.90;;;;;;5028968;28;20471;-62
2023/04/12 07:00:19;;;;;;;3.40;2.60;;;7.40;99.90;;;;;;5017568;28;20955;-62
2023/04/12 07:02:47;;;;;;;6.20;2.90;;;7.50;99.90;;;;;;5022166;28;20479;-61
2023/04/12 07:05:16;;;;;;;3.03;2.80;;;7.60;99.90;;;;;;5025780;28;20924;-63
2023/04/12 07:07:44;;;;;;;4.60;3.23;;;7.70;99.90;;;;;;5023547;28;20471;-62
2023/04/12 07:10:13;;;;;;;3.67;3.23;;;7.70;99.90;;;;;;5025330;28;20480;-62
2023/04/12 07:12:41;;;;;;;2.93;2.60;;;7.80;99.90;;;;;;5024350;28;20476;-61
2023/04/12 07:15:09;;;;;;;3.10;2.80;;;7.80;99.90;;;;;;5019203;28;20475;-61
2023/04/12 07:17:37;;;;;;;3.40;3.10;;;7.90;99.90;;;;;;5025680;28;20467;-61
2023/04/12 07:20:06;;;;;;;4.43;3.30;;;8.00;99.90;;;;;;5023264;28;20491;-62
2023/04/12 07:22:35;;;;;;;4.53;3.40;;;8.10;99.90;;;;;;5029092;28;20479;-62
2023/04/12 07:25:08;;;;;;;3.97;3.40;;;8.20;99.90;;;;;;5022906;28;20467;-62
2023/04/12 07:27:36;;;;;;;5.30;3.27;;;8.30;99.90;;;;;;5026195;28;20553;-61
2023/04/12 07:30:05;;;;;;;3.70;3.40;;;8.30;99.90;;;;;;5022517;28;20988;-62
2023/04/12 07:32:33;;;;;;;4.00;3.30;;;8.40;99.90;;;;;;5024693;28;20486;-62
2023/04/12 07:35:01;;;;;;;5.03;3.67;;;8.40;99.90;;;;;;5026681;28;20915;-62
2023/04/12 07:37:29;;;;;;;3.80;3.23;;;8.50;99.90;;;;;;5036478;28;20436;-62
2023/04/12 07:39:59;;;;;;;3.73;3.30;;;8.50;99.90;;;;;;5047976;28;20487;-62
2023/04/12 07:42:27;;;;;;;3.53;3.17;;;8.60;99.90;;;;;;5045399;28;20475;-62
2023/04/12 07:44:55;;;;;;;3.70;3.33;;;8.60;99.90;;;;;;5027109;28;20468;-62
2023/04/12 07:47:23;;;;;;;3.70;3.40;;;8.70;99.90;;;;;;5023034;28;20479;-61
2023/04/12 07:49:51;;;;;;;3.93;3.00;;;8.70;99.90;;;;;;5024649;28;20491;-63
2023/04/12 07:52:19;;;;;;;3.93;3.20;;;8.80;99.90;;;;;;5025658;28;20475;-61
2023/04/12 07:54:47;;;;;;;5.13;3.33;;;8.80;99.90;;;;;;5029102;28;20467;-61
2023/04/12 07:57:16;;;;;;;3.40;3.10;;;8.90;99.90;;;;;;5026447;28;20850;-61
2023/04/12 07:59:44;;;;;;;3.47;3.17;;;8.90;99.90;;;;;;5018404;28;20570;-61
2023/04/12 08:02:12;;;;;;;3.90;3.50;;;8.90;99.90;;;;;;5025791;28;20475;-62
2023/04/12 08:04:43;;;;;;;5.33;3.60;;;9.00;99.90;;;;;;5023782;28;20482;-62
2023/04/12 08:07:11;;;;;;;5.00;3.97;;;9.00;99.90;;;;;;5045692;28;20456;-61
2023/04/12 08:09:39;;;;;;;3.57;3.27;;;9.10;99.90;;;;;;5042362;28;20500;-61
2023/04/12 08:12:07;;;;;;;4.93;3.13;;;9.10;99.90;;;;;;5046295;28;20452;-61
2023/04/12 08:14:36;;;;;;;4.33;3.10;;;9.10;99.90;;;;;;5024955;28;20464;-61
2023/04/12 08:17:07;;;;;;;4.93;3.63;;;9.10;99.90;;;;;;5025611;28;20471;-61
2023/04/12 08:19:35;;;;;;;4.43;3.60;;;9.20;99.90;;;;;;5025076;28;20487;-61
2023/04/12 08:22:03;;;;;;;3.73;3.40;;;9.20;99.90;;;;;;5019543;28;20502;-61
2023/04/12 08:24:31;;;;;;;3.80;3.50;;;9.20;99.90;;;;;;5026816;28;20474;-61
2023/04/12 08:27:00;;;;;;;5.43;4.10;;;9.30;99.90;;;;;;5017174;28;20471;-61
2023/04/12 08:29:28;;;;;;;3.63;3.13;;;9.30;99.90;;;;;;5024146;28;20574;-61
2023/04/12 08:32:00;;;;;;;4.10;3.37;;;9.30;99.90;;;;;;5022454;28;20496;-61
2023/04/12 08:34:28;;;;;;;5.43;3.43;;;9.30;99.90;;;;;;5021308;28;20850;-61
2023/04/12 08:36:59;;;;;;;3.63;3.00;;;9.30;99.90;;;;;;5027047;28;20467;-62
2023/04/12 08:39:27;;;;;;;5.40;3.87;;;9.30;99.90;;;;;;5025387;28;20586;-61
2023/04/12 08:41:56;;;;;;;3.20;2.90;;;9.40;99.90;;;;;;5015322;28;20499;-61
2023/04/12 08:44:35;;;;;;;4.43;3.30;;;9.30;99.90;;;;;;5025241;28;20467;-61
2023/04/12 08:47:07;;;;;;;5.80;3.13;;;9.30;99.90;;;;;;5026413;28;20475;-61
2023/04/12 08:49:35;;;;;;;6.80;3.53;;;9.30;99.90;;;;;;5020178;28;20595;-62
2023/04/12 08:52:06;;;;;;;3.30;2.97;;;9.30;99.90;;;;;;5030321;28;20462;-61
2023/04/12 08:54:35;;;;;;;4.13;3.70;;;9.30;99.90;;;;;;5031765;28;20467;-62
2023/04/12 08:57:05;;;;;;;3.67;3.37;;;9.40;99.90;;;;;;5022910;28;20997;-62
2023/04/12 08:59:37;;;;;;;6.87;3.57;;;9.40;99.90;;;;;;5022904;28;21111;-62
2023/04/12 09:02:07;;;;;;;5.13;3.63;;;9.40;99.90;;;;;;5027562;28;20601;-62
2023/04/12 09:04:47;;;;;;;7.20;3.50;;;9.40;99.90;;;;;;5025141;28;20471;-62
2023/04/12 09:07:15;;;;;;;4.30;3.90;;;9.40;99.90;;;;;;5030908;28;20503;-62
2023/04/12 09:09:45;;;;;;;3.73;3.43;;;9.50;99.90;;;;;;5027171;28;20482;-61
2023/04/12 09:12:14;;;;;;;3.97;3.50;;;9.50;99.90;;;;;;5024404;28;20772;-61
2023/04/12 09:14:43;;;;;;;5.03;3.77;;;9.60;99.90;;;;;;5032710;28;20959;-61
2023/04/12 09:17:27;;;;;;;4.60;3.13;;;9.60;99.90;;;;;;5024635;28;20485;-61
2023/04/12 09:19:55;;;;;;;4.40;3.20;;;9.70;99.90;;;;;;5029316;28;20554;-61
2023/04/12 09:22:34;;;;;;;4.00;3.30;;;9.80;99.90;;;;;;5030966;28;21038;-61
2023/04/12 09:25:03;;;;;;;3.80;3.23;;;9.90;99.90;;;;;;5025578;28;20469;-61
2023/04/12 09:27:46;;;;;;;5.73;3.40;;;9.90;99.90;;;;;;5028144;28;20474;-60
2023/04/12 09:30:16;;;;;;;2.97;2.77;;;10.00;99.90;;;;;;5025649;28;20494;-61
2023/04/12 09:32:48;;;;;;;3.97;3.40;;;10.10;99.90;;;;;;5026738;28;20913;-61
2023/04/12 09:35:16;;;;;;;4.80;3.13;;;10.20;99.90;;;;;;5029036;28;20468;-62
2023/04/12 09:37:44;;;;;;;3.50;3.00;;;10.20;99.90;;;;;;5027068;28;20471;-61
2023/04/12 09:40:13;;;;;;;4.07;2.97;;;10.30;99.90;;;;;;5024190;28;20513;-61
2023/04/12 09:42:51;;;;;;;3.17;2.63;;;10.30;99.90;;;;;;5023698;28;20504;-60
2023/04/12 09:45:21;;;;;;;3.03;2.83;;;10.30;99.90;;;;;;5026147;28;20472;-61
2023/04/12 09:47:51;;;;;;;3.80;3.20;;;10.40;99.90;;;;;;5029682;28;20467;-61
2023/04/12 09:50:23;;;;;;;3.53;3.23;;;10.40;99.90;;;;;;5023651;28;20531;-61
2023/04/12 09:52:52;;;;;;;4.50;2.73;;;10.40;99.90;;;;;;5026637;28;20478;-61
2023/04/12 09:55:22;;;;;;;3.63;2.60;;;10.40;99.90;;;;;;5025326;28;20562;-61
2023/04/12 09:57:52;;;;;;;4.20;2.67;;;10.40;99.90;;;;;;5025408;28;20475;-61
2023/04/12 10:00:24;;;;;;;3.33;3.07;;;10.40;99.90;;;;;;5027421;28;20498;-61
2023/04/12 10:02:55;;;;;;;3.67;2.87;;;10.40;99.90;;;;;;5028294;28;21000;-61
2023/04/12 10:05:25;;;;;;;3.30;3.00;;;10.40;99.90;;;;;;5020408;28;20484;-61
2023/04/12 10:07:55;;;;;;;3.67;2.93;;;10.50;99.90;;;;;;5027994;28;20483;-61
2023/04/12 10:10:23;;;;;;;2.93;2.73;;;10.50;99.90;;;;;;5018165;28;20502;-62
2023/04/12 10:12:51;;;;;;;5.40;2.87;;;10.50;99.90;;;;;;5027412;28;20839;-62
2023/04/12 10:15:20;;;;;;;3.27;2.80;;;10.50;99.90;;;;;;5027434;28;20475;-62
2023/04/12 10:17:51;;;;;;;3.50;3.20;;;10.60;99.90;;;;;;5022816;28;20487;-62
2023/04/12 10:20:22;;;;;;;3.10;2.80;;;10.60;99.90;;;;;;5020218;28;20491;-61
2023/04/12 10:22:58;;;;;;;3.97;3.07;;;10.60;99.90;;;;;;5026263;28;21083;-61
2023/04/12 10:25:29;;;;;;;3.40;3.10;;;10.60;99.90;;;;;;5021695;28;20476;-62
2023/04/12 10:27:57;;;;;;;3.87;2.70;;;10.60;99.90;;;;;;5029500;28;20479;-62
2023/04/12 10:30:27;;;;;;;3.30;2.97;;;10.60;99.90;;;;;;5020984;28;20487;-61
2023/04/12 10:33:16;;;;;;;3.90;2.77;;;10.70;99.90;;;;;;5025805;28;20467;-61
2023/04/12 10:36:02;;;;;;;4.67;3.50;;;10.70;99.90;;;;;;5028425;28;20960;-61
2023/04/12 10:38:36;;;;;;;4.50;3.07;;;10.70;99.90;;;;;;5023829;28;20496;-62
2023/04/12 10:41:10;;;;;;;5.53;3.43;;;10.80;99.90;;;;;;5021821;28;20483;-61
2023/04/12 10:43:38;;;;;;;3.73;3.33;;;10.80;99.90;;;;;;5023670;28;20463;-62
2023/04/12 10:46:06;;;;;;;2.90;2.60;;;10.80;99.90;;;;;;5026411;28;20471;-62
2023/04/12 10:48:36;;;;;;;4.40;3.07;;;10.90;99.90;;;;;;5027465;28;20494;-62
2023/04/12 10:51:20;;;;;;;4.20;3.20;;;10.90;99.90;;;;;;5020388;28;21224;-62
2023/04/12 10:53:50;;;;;;;5.20;3.17;;;10.90;99.90;;;;;;5022020;28;20487;-62
2023/04/12 10:56:38;;;;;;;3.37;2.77;;;10.90;99.90;;;;;;5024909;28;20550;-62
2023/04/12 10:59:07;;;;;;;3.00;2.73;;;10.90;99.90;;;;;;5019202;28;20974;-62
2023/04/12 11:01:36;;;;;;;4.53;3.00;;;10.90;99.90;;;;;;5025062;28;20487;-62
2023/04/12 11:04:16;;;;;;;4.63;2.93;;;10.80;99.90;;;;;;5025476;28;20511;-62
2023/04/12 11:06:58;;;;;;;3.73;2.97;;;10.80;99.90;;;;;;5019310;28;20480;-62
2023/04/12 11:09:28;;;;;;;5.37;3.27;;;10.70;99.90;;;;;;5023312;28;20510;-62
2023/04/12 11:11:58;;;;;;;5.20;3.47;;;10.60;99.90;;;;;;5021469;28;20466;-62
2023/04/12 11:14:30;;;;;;;4.57;2.90;;;10.60;99.90;;;;;;5028223;28;20858;-62
2023/04/12 11:17:23;;;;;;;5.23;3.07;;;10.50;99.90;;;;;;5024897;28;20898;-62
2023/04/12 11:19:57;;;;;;;4.40;3.73;;;10.40;99.90;;;;;;5021225;28;21014;-62
2023/04/12 11:22:29;;;;;;;6.03;3.43;;;10.30;99.90;;;;;;5026387;28;20570;-62
2023/04/12 11:24:59;;;;;;;3.90;3.53;;;10.20;99.90;;;;;;5022418;28;20694;-62
2023/04/12 11:27:28;;;;;;;4.77;3.73;;;10.20;99.90;;;;;;5009340;28;20467;-62
2023/04/12 11:29:57;;;;;;;3.83;3.50;;;10.10;99.90;;;;;;5006216;28;20494;-63
2023/04/12 11:32:27;;;;;;;5.60;3.57;;;10.10;99.90;;;;;;5011074;28;20519;-62
2023/04/12 11:34:57;;;;;;;5.90;3.97;;;10.00;99.90;;;;;;5013247;28;20877;-62
2023/04/12 11:37:26;;;;;;;5.20;3.53;;;9.90;99.90;;;;;;5020161;28;20819;-63
2023/04/12 11:39:59;;;;;;;4.50;4.10;;;9.90;99.90;;;;;;5020091;28;20631;-63
2023/04/12 11:42:29;;;;;;;5.27;3.70;;;9.80;99.90;;;;;;5026405;28;20492;-63
2023/04/12 11:44:57;;;;;;;4.50;4.03;;;9.70;99.90;;;;;;5041655;28;20463;-63
2023/04/12 11:47:33;;;;;;;4.13;3.73;;;9.70;99.90;;;;;;5024925;28;20495;-62
2023/04/12 11:50:01;;;;;;;5.33;4.27;;;9.70;99.90;;;;;;5018179;28;20574;-63
2023/04/12 11:52:32;;;;;;;4.50;3.57;;;9.60;99.90;;;;;;5017217;28;20467;-62
2023/04/12 11:55:03;;;;;;;7.10;4.00;;;9.60;99.90;;;;;;5013626;28;20525;-63
2023/04/12 11:57:32;;;;;;;5.47;4.00;;;9.60;99.90;;;;;;5017798;28;20475;-62
2023/04/12 12:00:01;;;;;;;4.67;4.07;;;9.50;99.90;;;;;;5010360;28;20577;-63
2023/04/12 12:02:33;;;;;;;4.10;3.57;;;9.50;99.90;;;;;;5007622;28;20615;-62
2023/04/12 12:05:13;;;;;;;6.73;3.73;;;9.50;99.90;;;;;;5008846;28;20475;-62
2023/04/12 12:07:43;;;;;;;5.00;4.10;;;9.40;99.90;;;;;;5012470;28;20479;-63
2023/04/12 12:10:11;;;;;;;8.20;4.13;;;9.40;99.90;;;;;;5004988;28;20495;-62
2023/04/12 12:12:48;;;;;;;5.20;4.07;;;9.40;99.90;;;;;;5017718;28;20490;-62
2023/04/12 12:15:16;;;;;;;5.50;4.27;;;9.40;99.90;;;;;;5028123;28;20474;-62
2023/04/12 12:17:44;;;;;;;6.17;4.53;;;9.40;99.90;;;;;;5028631;28;21112;-63
2023/04/12 12:20:21;;;;;;;4.23;3.83;;;9.40;99.90;;;;;;5011156;28;22026;-63
2023/04/12 12:22:50;;;;;;;7.67;4.50;;;9.50;99.90;;;;;;5017641;28;20494;-63
2023/04/12 12:25:19;;;;;;;4.70;4.30;;;9.50;99.90;;;;;;5027813;28;20471;-63
2023/04/12 12:27:49;;;;;;;6.47;4.40;;;9.50;99.90;;;;;;5012602;28;20474;-62
2023/04/12 12:30:19;;;;;;;5.00;4.50;;;9.50;99.90;;;;;;5018359;28;20494;-62
2023/04/12 12:32:51;;;;;;;5.50;4.30;;;9.50;99.90;;;;;;5017969;28;21926;-62
2023/04/12 12:35:19;;;;;;;6.33;4.70;;;9.50;99.90;;;;;;5030436;28;20513;-62
2023/04/12 12:37:54;;;;;;;5.40;4.70;;;9.50;99.90;;;;;;5025796;28;20511;-61
2023/04/12 12:40:31;;;;;;;6.13;4.67;;;9.50;99.90;;;;;;5021065;28;20505;-62
2023/04/12 12:42:59;;;;;;;5.13;4.63;;;9.50;99.90;;;;;;5027851;28;20578;-63
2023/04/12 12:45:29;;;;;;;5.17;4.77;;;9.50;99.90;;;;;;5022958;28;20558;-63
2023/04/12 12:47:59;;;;;;;6.50;5.40;;;9.50;99.90;;;;;;5017807;28;20489;-63
2023/04/12 12:50:28;;;;;;;5.97;5.47;;;9.50;99.90;;;;;;5028122;28;20486;-63
2023/04/12 12:52:59;;;;;;;5.50;5.00;;;9.50;99.90;;;;;;5024948;28;20815;-62
2023/04/12 12:55:28;;;;;;;8.70;5.00;;;9.40;99.90;;;;;;5020192;28;20501;-64
2023/04/12 12:57:57;;;;;;;5.30;4.30;;;9.40;99.90;;;;;;5024445;28;20491;-62
2023/04/12 13:00:30;;;;;;;5.50;4.63;;;9.40;99.90;;;;;;5037295;28;20496;-62
2023/04/12 13:02:58;;;;;;;5.33;4.83;;;9.30;99.90;;;;;;5050545;28;20463;-62
2023/04/12 13:05:27;;;;;;;7.53;4.37;;;9.30;99.90;;;;;;5052899;28;20475;-61
2023/04/12 13:07:56;;;;;;;6.13;3.97;;;9.30;99.90;;;;;;5027658;28;20570;-62
2023/04/12 13:10:25;;;;;;;4.20;3.80;;;9.30;99.90;;;;;;5028605;28;21094;-62